Anson, Maine
Current Conditions -  °F | °C
As of 12:55 PM on Sunday 21 Dec 2014 (Local Time) from KWVL Reporting Station
Overcast Overcast  
Wind Chill: -5°   Ceiling: 4100
Heat Index: -2°   Visibility: 10mi
Dew Point: -6°   Wind: 5mph
Humidity: 74%   Direction: 360°N
Pressure: 30.29"   Gusts: NA
Location:  44.8°N, 69.89°W
Report Text: KWVL 211755Z 36004KT 10SM BKN041 OVC070 M02/M06 A3029 RMK AO1 11020 21070 57017
Loading
Personal Weather Stations






























Interactive Weather Map New forecast layout! Learn more

10-Day Weather Forecast

Advertisements
Track Severe Weather on mobile